createdAt,value
2019-05-02T00:00:16.018Z,31.22
2019-05-02T00:01:35.438Z,31.18
2019-05-02T00:02:41.293Z,31.23
2019-05-02T00:03:47.023Z,31.51
2019-05-02T00:04:55.843Z,31.61
2019-05-02T00:06:03.041Z,31.82
2019-05-02T00:07:07.930Z,31.65
2019-05-02T00:08:12.813Z,31.35
2019-05-02T00:09:17.831Z,31.61
2019-05-02T00:10:24.865Z,31.78
2019-05-02T00:11:30.771Z,31.75
2019-05-02T00:12:35.939Z,32.29
2019-05-02T00:13:40.639Z,32.33
2019-05-02T00:14:47.030Z,32.37
2019-05-02T00:15:52.790Z,32.13
2019-05-02T00:16:57.749Z,32.67
2019-05-02T00:18:02.845Z,31.83
2019-05-02T00:19:09.039Z,32.17
2019-05-02T00:20:15.768Z,32.06
2019-05-02T00:21:20.969Z,31.63
2019-05-02T00:22:26.554Z,32.40
2019-05-02T00:23:31.592Z,32.55
2019-05-02T00:24:39.233Z,32.22
2019-05-02T00:25:47.198Z,32.24
2019-05-02T00:26:50.521Z,32.35
2019-05-02T00:27:55.550Z,32.19
2019-05-02T00:29:00.341Z,32.43
2019-05-02T00:30:06.143Z,32.44
2019-05-02T00:31:11.520Z,32.49
2019-05-02T00:32:18.372Z,32.73
2019-05-02T00:33:24.149Z,32.76
2019-05-02T00:34:29.448Z,32.41
2019-05-02T00:35:34.442Z,32.75
2019-05-02T00:36:39.229Z,32.53
2019-05-02T00:37:44.519Z,32.04
2019-05-02T00:38:49.792Z,32.16
2019-05-02T00:39:54.836Z,32.31
2019-05-02T00:41:02.166Z,32.23
2019-05-02T00:42:12.909Z,32.77
2019-05-02T00:43:14.408Z,31.88
2019-05-02T00:44:19.394Z,32.14
2019-05-02T00:45:25.961Z,32.32
2019-05-02T00:46:34.988Z,32.49
2019-05-02T00:47:59.032Z,32.56
2019-05-02T00:49:03.484Z,32.32
2019-05-02T00:50:11.259Z,32.37
2019-05-02T00:51:15.623Z,32.68
2019-05-02T00:52:21.184Z,32.21
2019-05-02T00:53:26.236Z,31.98
2019-05-02T00:54:31.268Z,32.48
2019-05-02T00:55:36.722Z,32.71
2019-05-02T00:56:44.233Z,32.55
2019-05-02T00:57:50.859Z,32.62
2019-05-02T00:58:55.451Z,32.47
2019-05-02T01:00:00.743Z,32.25
2019-05-02T01:01:24.384Z,32.24
2019-05-02T01:02:42.513Z,32.26
2019-05-02T01:03:51.995Z,32.03
2019-05-02T01:04:59.346Z,32.56
2019-05-02T01:06:03.039Z,32.82
2019-05-02T01:07:09.121Z,33.20
2019-05-02T01:08:14.095Z,32.78
2019-05-02T01:09:19.371Z,33.00
2019-05-02T01:10:24.376Z,32.68
2019-05-02T01:11:32.207Z,32.78
2019-05-02T01:12:40.070Z,32.38
2019-05-02T01:13:43.110Z,32.20
2019-05-02T01:14:47.803Z,31.94
2019-05-02T01:15:53.064Z,32.00
2019-05-02T01:16:58.094Z,31.91
2019-05-02T01:18:06.192Z,31.73
2019-05-02T01:19:12.193Z,31.78
2019-05-02T01:20:17.108Z,31.85
2019-05-02T01:21:23.161Z,31.74
2019-05-02T01:22:28.803Z,32.02
2019-05-02T01:23:34.042Z,32.48
2019-05-02T01:24:41.524Z,32.33
2019-05-02T01:25:47.242Z,32.00
2019-05-02T01:27:08.262Z,31.42
2019-05-02T01:28:18.869Z,31.39
2019-05-02T01:29:32.518Z,32.41
2019-05-02T01:30:55.145Z,32.78
2019-05-02T01:32:25.185Z,32.38
2019-05-02T01:33:36.836Z,32.79
2019-05-02T01:34:48.946Z,32.22
2019-05-02T01:36:05.697Z,32.38
2019-05-02T01:37:27.745Z,32.33
2019-05-02T01:38:51.616Z,32.70
2019-05-02T01:39:56.992Z,32.57
2019-05-02T01:41:01.686Z,32.07
2019-05-02T01:42:06.421Z,32.33
2019-05-02T01:43:24.106Z,32.81
2019-05-02T01:44:31.188Z,32.70
2019-05-02T01:45:36.593Z,32.27
2019-05-02T01:46:42.165Z,32.36
2019-05-02T01:47:46.878Z,31.90
2019-05-02T01:48:51.868Z,32.01
2019-05-02T01:49:57.165Z,32.60
2019-05-02T01:51:04.363Z,32.66
2019-05-02T01:52:09.806Z,32.44
2019-05-02T01:53:15.115Z,32.23
2019-05-02T01:54:19.797Z,32.17
2019-05-02T01:55:24.501Z,32.60
2019-05-02T01:56:33.230Z,32.48
2019-05-02T01:57:40.025Z,32.45
2019-05-02T01:58:43.182Z,32.30
2019-05-02T01:59:48.457Z,32.08
2019-05-02T02:00:53.710Z,32.28
2019-05-02T02:01:59.166Z,32.26
2019-05-02T02:03:04.259Z,32.83
2019-05-02T02:04:10.675Z,32.51
2019-05-02T02:05:15.652Z,32.29
2019-05-02T02:06:20.617Z,32.43
2019-05-02T02:07:25.632Z,32.79
2019-05-02T02:08:32.584Z,32.06
2019-05-02T02:09:38.801Z,32.03
2019-05-02T02:10:44.214Z,31.88
2019-05-02T02:11:49.786Z,32.28
2019-05-02T02:13:03.410Z,32.10
2019-05-02T02:14:02.051Z,32.08
2019-05-02T02:15:06.944Z,31.82
2019-05-02T02:16:12.221Z,31.59
2019-05-02T02:17:17.354Z,31.83
2019-05-02T02:18:27.748Z,31.75
2019-05-02T02:19:39.109Z,32.09
2019-05-02T02:20:54.553Z,32.32
2019-05-02T02:22:23.574Z,32.87
2019-05-02T02:23:44.972Z,32.39
2019-05-02T02:24:55.938Z,32.10
2019-05-02T02:26:01.911Z,31.85
2019-05-02T02:27:06.676Z,31.66
2019-05-02T02:28:11.396Z,31.67
2019-05-02T02:29:16.368Z,31.61
2019-05-02T02:30:24.594Z,31.55
2019-05-02T02:31:27.564Z,31.34
2019-05-02T02:32:32.625Z,31.16
2019-05-02T02:33:40.906Z,31.08
2019-05-02T02:34:44.096Z,30.86
2019-05-02T02:35:50.485Z,30.99
2019-05-02T02:36:55.480Z,31.04
2019-05-02T02:38:00.459Z,30.94
2019-05-02T02:39:13.389Z,30.97
2019-05-02T02:40:13.349Z,31.00
2019-05-02T02:41:18.909Z,31.20
2019-05-02T02:42:25.057Z,30.97
2019-05-02T02:43:34.989Z,31.35
2019-05-02T02:44:58.832Z,31.42
2019-05-02T02:46:12.538Z,31.09
2019-05-02T02:47:18.874Z,31.09
2019-05-02T02:48:23.475Z,31.29
2019-05-02T02:49:28.899Z,30.99
2019-05-02T02:50:36.894Z,30.90
2019-05-02T02:51:40.541Z,31.10
2019-05-02T02:52:47.104Z,31.09
2019-05-02T02:54:03.036Z,30.95
2019-05-02T02:54:58.561Z,31.21
2019-05-02T02:56:04.319Z,30.95
2019-05-02T02:57:20.109Z,30.97
2019-05-02T02:58:18.305Z,31.20
2019-05-02T02:59:26.164Z,31.02
2019-05-02T03:00:31.127Z,31.34
2019-05-02T03:01:36.411Z,31.59
2019-05-02T03:02:47.647Z,31.47
2019-05-02T03:03:48.296Z,31.21
2019-05-02T03:04:53.460Z,31.08
2019-05-02T03:05:58.652Z,31.47
2019-05-02T03:07:04.919Z,31.05
2019-05-02T03:08:09.914Z,31.36
2019-05-02T03:09:20.159Z,31.55
2019-05-02T03:10:21.299Z,31.41
2019-05-02T03:11:27.697Z,31.39
2019-05-02T03:12:57.736Z,31.80
2019-05-02T03:14:18.680Z,31.39
2019-05-02T03:15:27.927Z,31.23
2019-05-02T03:16:31.957Z,31.35
2019-05-02T03:17:36.970Z,31.89
2019-05-02T03:18:43.385Z,32.05
2019-05-02T03:19:54.216Z,32.30
2019-05-02T03:20:55.789Z,31.58
2019-05-02T03:22:03.746Z,32.18
2019-05-02T03:23:07.585Z,31.57
2019-05-02T03:24:12.059Z,31.21
2019-05-02T03:25:18.413Z,31.32
2019-05-02T03:26:23.516Z,31.28
2019-05-02T03:27:29.977Z,31.73
2019-05-02T03:28:34.980Z,31.48
2019-05-02T03:29:44.120Z,31.97
2019-05-02T03:30:47.259Z,31.39
2019-05-02T03:32:12.256Z,31.86
2019-05-02T03:33:09.769Z,31.44
2019-05-02T03:34:06.261Z,31.39
2019-05-02T03:35:17.936Z,31.60
2019-05-02T03:36:28.521Z,31.89
2019-05-02T03:37:24.820Z,31.61
2019-05-02T03:38:32.619Z,31.24
2019-05-02T03:39:37.282Z,31.11
2019-05-02T03:40:42.828Z,31.56
2019-05-02T03:41:48.090Z,31.52
2019-05-02T03:42:52.934Z,31.60
2019-05-02T03:44:10.763Z,31.65
2019-05-02T03:45:05.570Z,31.30
2019-05-02T03:46:13.554Z,31.22
2019-05-02T03:47:18.123Z,31.28
2019-05-02T03:48:25.598Z,31.16
2019-05-02T03:49:29.665Z,31.34
2019-05-02T03:50:35.373Z,31.19
2019-05-02T03:51:40.649Z,31.11
2019-05-02T03:52:46.468Z,30.81
2019-05-02T03:53:51.365Z,31.00
2019-05-02T03:54:56.387Z,30.41
2019-05-02T03:56:10.605Z,30.83
2019-05-02T03:57:08.757Z,30.84
2019-05-02T03:58:16.844Z,30.70
2019-05-02T03:59:20.873Z,30.65
2019-05-02T04:00:25.847Z,30.83
2019-05-02T04:01:34.855Z,30.37
2019-05-02T04:02:38.373Z,30.25
2019-05-02T04:03:43.802Z,30.29
2019-05-02T04:04:54.488Z,30.21
2019-05-02T04:05:56.486Z,30.15
2019-05-02T04:07:03.288Z,29.97
2019-05-02T04:08:20.042Z,30.11
2019-05-02T04:09:39.221Z,30.42
2019-05-02T04:11:10.972Z,30.42
2019-05-02T04:12:19.317Z,30.45
2019-05-02T04:13:24.012Z,30.36
2019-05-02T04:14:37.921Z,30.31
2019-05-02T04:15:40.229Z,30.26
2019-05-02T04:16:48.587Z,30.29
2019-05-02T04:17:53.808Z,30.34
2019-05-02T04:18:59.578Z,30.59
2019-05-02T04:20:09.657Z,30.51
2019-05-02T04:21:10.941Z,30.57
2019-05-02T04:22:16.392Z,30.90
2019-05-02T04:23:27.887Z,30.90
2019-05-02T04:24:28.525Z,30.98
2019-05-02T04:25:35.350Z,30.33
2019-05-02T04:26:52.615Z,30.51
2019-05-02T04:27:48.467Z,30.57
2019-05-02T04:28:53.763Z,30.37
2019-05-02T04:30:09.975Z,30.47
2019-05-02T04:31:05.082Z,30.40
2019-05-02T04:32:14.089Z,30.25
2019-05-02T04:33:17.030Z,30.44
2019-05-02T04:34:22.007Z,30.97
2019-05-02T04:35:28.797Z,30.66
2019-05-02T04:36:33.688Z,30.68
2019-05-02T04:37:40.956Z,29.99
2019-05-02T04:38:48.758Z,29.77
2019-05-02T04:39:53.729Z,30.15
2019-05-02T04:40:59.735Z,30.24
2019-05-02T04:42:12.940Z,29.92
2019-05-02T04:43:11.790Z,30.33
2019-05-02T04:44:18.979Z,30.41
2019-05-02T04:45:29.250Z,30.84
2019-05-02T04:46:31.180Z,30.61
2019-05-02T04:47:39.049Z,30.68
2019-05-02T04:48:48.606Z,30.93
2019-05-02T04:49:51.970Z,30.35
2019-05-02T04:50:59.413Z,30.54
2019-05-02T04:52:10.470Z,30.25
2019-05-02T04:53:10.035Z,30.75
2019-05-02T04:54:22.016Z,30.53
2019-05-02T04:55:29.220Z,30.68
2019-05-02T04:56:28.951Z,30.90
2019-05-02T04:57:36.731Z,30.93
2019-05-02T04:58:40.958Z,30.48
2019-05-02T04:59:50.035Z,30.43
2019-05-02T05:00:58.072Z,30.47
2019-05-02T05:02:01.555Z,30.11
2019-05-02T05:03:15.199Z,30.01
2019-05-02T05:04:13.133Z,30.26
2019-05-02T05:05:25.429Z,30.24
2019-05-02T05:06:27.576Z,30.17
2019-05-02T05:07:40.960Z,30.12
2019-05-02T05:08:41.826Z,29.83
2019-05-02T05:09:50.064Z,30.41
2019-05-02T05:10:53.880Z,30.46
2019-05-02T05:12:02.538Z,31.03
2019-05-02T05:13:07.622Z,30.53
2019-05-02T05:14:12.324Z,30.39
2019-05-02T05:15:33.908Z,30.65
2019-05-02T05:16:24.009Z,31.29
2019-05-02T05:17:32.472Z,30.97
2019-05-02T05:18:37.872Z,31.01
2019-05-02T05:19:42.929Z,30.72
2019-05-02T05:20:52.958Z,30.33
2019-05-02T05:21:58.837Z,31.02
2019-05-02T05:23:01.666Z,31.55
2019-05-02T05:24:25.530Z,31.00
2019-05-02T05:25:37.850Z,31.05
2019-05-02T05:26:43.857Z,30.91
2019-05-02T05:27:52.775Z,31.38
2019-05-02T05:28:58.381Z,30.61
2019-05-02T05:30:09.313Z,32.51
2019-05-02T05:31:10.288Z,31.79
2019-05-02T05:32:17.833Z,30.83
2019-05-02T05:33:22.798Z,30.87
2019-05-02T05:34:32.274Z,30.35
2019-05-02T05:35:34.238Z,30.33
2019-05-02T05:36:39.311Z,30.29
2019-05-02T05:37:51.214Z,29.81
2019-05-02T05:38:50.999Z,30.51
2019-05-02T05:39:55.687Z,30.84
2019-05-02T05:41:03.081Z,29.97
2019-05-02T05:42:10.379Z,30.22
2019-05-02T05:43:17.985Z,29.95
2019-05-02T05:44:23.375Z,29.92
2019-05-02T05:45:27.974Z,30.29
2019-05-02T05:46:33.297Z,29.46
2019-05-02T05:47:39.743Z,30.31
2019-05-02T05:48:44.473Z,31.01
2019-05-02T05:49:52.414Z,30.52
2019-05-02T05:50:57.882Z,30.37
2019-05-02T05:52:03.957Z,29.70
2019-05-02T05:53:12.480Z,29.84
2019-05-02T05:54:15.486Z,29.44
2019-05-02T05:55:24.004Z,29.14
2019-05-02T05:56:27.934Z,29.27
2019-05-02T05:57:33.458Z,29.57
2019-05-02T05:58:39.901Z,29.32
2019-05-02T05:59:45.444Z,29.55
2019-05-02T06:00:53.919Z,29.78
2019-05-02T06:01:57.953Z,30.50
2019-05-02T06:03:11.545Z,30.78
2019-05-02T06:04:13.944Z,31.04
2019-05-02T06:05:17.481Z,31.08
2019-05-02T06:06:24.439Z,30.92
2019-05-02T06:07:33.659Z,31.50
2019-05-02T06:08:36.503Z,31.51
2019-05-02T06:09:41.471Z,30.77
2019-05-02T06:10:46.456Z,30.65
2019-05-02T06:11:55.488Z,30.23
2019-05-02T06:12:57.632Z,30.35
2019-05-02T06:14:02.586Z,30.13
2019-05-02T06:15:07.341Z,30.11
2019-05-02T06:16:15.044Z,29.82
2019-05-02T06:17:23.007Z,30.98
2019-05-02T06:18:28.268Z,30.13
2019-05-02T06:19:32.898Z,30.08
2019-05-02T06:20:38.154Z,30.52
2019-05-02T06:21:45.066Z,30.34
2019-05-02T06:22:55.082Z,30.26
2019-05-02T06:23:58.343Z,30.47
2019-05-02T06:25:09.127Z,29.98
2019-05-02T06:26:15.436Z,30.74
2019-05-02T06:27:20.933Z,29.73
2019-05-02T06:28:27.594Z,30.15
2019-05-02T06:29:32.538Z,30.10
2019-05-02T06:30:37.235Z,30.51
2019-05-02T06:31:43.142Z,30.57
2019-05-02T06:32:50.066Z,30.86
2019-05-02T06:33:56.368Z,30.51
2019-05-02T06:35:00.823Z,31.31
2019-05-02T06:36:05.513Z,30.63
2019-05-02T06:37:13.670Z,30.16
2019-05-02T06:38:21.531Z,30.06
2019-05-02T06:39:27.017Z,30.37
2019-05-02T06:40:30.098Z,30.44
2019-05-02T06:41:34.776Z,30.74
2019-05-02T06:42:39.773Z,30.65
2019-05-02T06:43:46.645Z,30.37
2019-05-02T06:54:46.158Z,28.31
2019-05-02T06:55:51.437Z,28.19
2019-05-02T06:56:56.780Z,28.48
2019-05-02T06:58:03.578Z,27.79
2019-05-02T06:59:13.135Z,28.38
2019-05-02T07:00:15.744Z,25.83
2019-05-02T07:01:21.625Z,26.17
2019-05-02T07:02:28.271Z,26.85
2019-05-02T07:03:34.699Z,27.20
2019-05-02T07:04:39.706Z,27.19
2019-05-02T07:05:45.113Z,27.26
2019-05-02T07:06:58.780Z,27.16
2019-05-02T07:07:56.576Z,27.26
2019-05-02T07:09:02.104Z,27.05
2019-05-02T07:10:07.553Z,28.02
2019-05-02T07:11:12.275Z,27.95
2019-05-02T07:12:17.269Z,27.69
2019-05-02T07:13:22.548Z,27.10
2019-05-02T07:14:28.067Z,27.96
2019-05-02T07:15:58.019Z,27.64
2019-05-02T07:17:20.753Z,27.07
2019-05-02T07:18:26.009Z,27.03
2019-05-02T07:19:37.038Z,27.45
2019-05-02T07:20:42.515Z,28.96
2019-05-02T07:21:47.889Z,28.32
2019-05-02T07:22:53.110Z,27.62
2019-05-02T07:23:57.892Z,27.22
2019-05-02T07:25:06.982Z,27.08
2019-05-02T07:26:09.746Z,26.94
2019-05-02T07:27:15.599Z,27.19
2019-05-02T07:28:23.703Z,27.58
2019-05-02T07:29:27.470Z,27.17
2019-05-02T07:30:35.067Z,27.19
2019-05-02T07:31:42.938Z,27.91
2019-05-02T07:32:46.242Z,27.50
2019-05-02T07:33:50.976Z,27.21
2019-05-02T07:34:55.919Z,27.46
2019-05-02T07:36:01.423Z,27.47
2019-05-02T07:37:08.461Z,27.98
2019-05-02T07:38:12.348Z,28.10
2019-05-02T07:39:17.315Z,27.43
2019-05-02T07:40:22.579Z,26.54
2019-05-02T07:41:28.943Z,26.65
2019-05-02T07:42:36.817Z,26.78
2019-05-02T07:43:41.564Z,26.92
2019-05-02T07:44:46.343Z,26.99
2019-05-02T07:45:51.596Z,27.13
2019-05-02T07:47:02.225Z,27.03
2019-05-02T07:48:03.252Z,27.92
2019-05-02T07:49:08.200Z,27.14
2019-05-02T07:50:12.739Z,28.20
2019-05-02T07:51:21.288Z,28.80
2019-05-02T07:52:24.134Z,28.78
2019-05-02T07:53:29.115Z,28.99
2019-05-02T07:54:34.095Z,28.38
2019-05-02T07:55:40.829Z,28.60
2019-05-02T07:56:48.631Z,28.62
2019-05-02T07:57:51.989Z,29.00
2019-05-02T07:58:56.667Z,28.77
2019-05-02T08:00:02.696Z,28.40
2019-05-02T08:01:08.068Z,29.05
2019-05-02T08:02:13.861Z,29.27
2019-05-02T08:03:18.590Z,29.46
2019-05-02T08:04:23.328Z,29.70
2019-05-02T08:05:28.028Z,29.30
2019-05-02T08:06:35.289Z,30.00
2019-05-02T08:07:39.733Z,28.94
2019-05-02T08:08:44.699Z,29.30
2019-05-02T08:09:49.212Z,28.94
2019-05-02T08:11:01.345Z,28.72
2019-05-02T08:12:01.013Z,28.99
2019-05-02T08:13:05.701Z,28.99
2019-05-02T08:14:10.649Z,28.89
2019-05-02T08:15:15.403Z,28.34
2019-05-02T08:16:22.367Z,28.72
2019-05-02T08:17:27.138Z,29.65
2019-05-02T08:18:31.910Z,29.27
2019-05-02T08:19:37.541Z,29.12
2019-05-02T08:20:42.803Z,29.21
2019-05-02T08:21:47.906Z,29.81
2019-05-02T08:22:52.597Z,29.31
2019-05-02T08:24:02.197Z,29.18
2019-05-02T08:25:04.000Z,29.19
2019-05-02T08:26:09.279Z,28.50
2019-05-02T08:27:39.227Z,28.34
2019-05-02T08:28:54.801Z,27.93
2019-05-02T08:30:00.101Z,28.33
2019-05-02T08:31:05.971Z,28.26
2019-05-02T08:32:10.731Z,28.07
2019-05-02T08:33:15.490Z,27.59
2019-05-02T08:34:29.577Z,27.56
2019-05-02T08:35:34.279Z,27.40
2019-05-02T08:36:39.328Z,28.07
2019-05-02T08:37:44.046Z,28.53
2019-05-02T08:38:53.067Z,26.74
2019-05-02T08:39:55.515Z,25.13
2019-05-02T08:41:00.250Z,24.44
2019-05-02T08:42:05.389Z,25.26
2019-05-02T08:43:11.031Z,25.56
2019-05-02T08:44:16.998Z,25.46
2019-05-02T08:45:22.891Z,25.99
2019-05-02T08:46:27.874Z,26.31
2019-05-02T08:47:32.674Z,26.42
2019-05-02T08:48:41.877Z,26.45
2019-05-02T08:49:43.815Z,25.99
2019-05-02T08:50:49.098Z,26.24
2019-05-02T08:51:53.614Z,25.98
2019-05-02T08:52:58.879Z,25.75
2019-05-02T08:54:03.873Z,26.17
2019-05-02T08:55:09.721Z,26.27
2019-05-02T08:56:21.300Z,25.82
2019-05-02T08:57:23.857Z,25.79
2019-05-02T08:58:29.256Z,25.88
2019-05-02T08:59:34.244Z,25.39
2019-05-02T09:00:39.567Z,24.24
2019-05-02T09:01:49.409Z,23.48
2019-05-02T09:02:51.211Z,23.67
2019-05-02T09:03:57.035Z,23.21
2019-05-02T09:05:04.585Z,23.18
2019-05-02T09:06:09.304Z,22.78
2019-05-02T09:07:14.317Z,22.94
2019-05-02T09:08:19.354Z,22.98
2019-05-02T09:09:28.180Z,23.73
2019-05-02T09:10:37.194Z,23.90
2019-05-02T09:11:41.516Z,23.62
2019-05-02T09:12:46.236Z,23.60
2019-05-02T09:13:52.630Z,23.65
2019-05-02T09:14:57.624Z,24.37
2019-05-02T09:16:05.580Z,24.54
2019-05-02T09:17:15.710Z,24.41
2019-05-02T09:18:15.791Z,24.38
2019-05-02T09:19:25.159Z,24.18
2019-05-02T09:20:27.242Z,24.04
2019-05-02T09:21:35.976Z,24.10
2019-05-02T09:22:39.205Z,24.29
2019-05-02T09:23:44.077Z,24.28
2019-05-02T09:24:49.054Z,24.57
2019-05-02T09:25:53.561Z,24.60
2019-05-02T09:26:58.793Z,25.07
2019-05-02T09:28:03.793Z,24.58
2019-05-02T09:29:09.113Z,24.48
2019-05-02T09:30:17.062Z,25.28
2019-05-02T09:31:22.670Z,24.31
2019-05-02T09:32:27.445Z,24.17
2019-05-02T09:33:32.333Z,24.13
2019-05-02T09:34:37.026Z,21.66
2019-05-02T09:35:42.308Z,21.60
2019-05-02T09:36:47.275Z,22.12
2019-05-02T09:37:52.339Z,21.22
2019-05-02T09:38:57.721Z,21.82
2019-05-02T09:40:06.881Z,22.25
2019-05-02T09:41:16.934Z,20.58
2019-05-02T09:42:18.846Z,20.75
2019-05-02T09:43:22.874Z,19.04
2019-05-02T09:44:28.452Z,16.65
2019-05-02T09:45:37.363Z,17.04
2019-05-02T09:46:42.720Z,15.81
2019-05-02T09:47:56.715Z,16.12
2019-05-02T09:48:57.059Z,16.93
2019-05-02T09:50:12.867Z,17.12
2019-05-02T09:51:18.194Z,17.12
2019-05-02T09:52:22.952Z,16.94
2019-05-02T09:53:27.935Z,17.44
2019-05-02T09:54:36.949Z,17.30
2019-05-02T09:55:42.030Z,17.74
2019-05-02T09:56:46.032Z,18.43
2019-05-02T09:57:51.929Z,19.39
2019-05-02T09:59:04.806Z,19.76
2019-05-02T10:00:03.914Z,19.51
2019-05-02T10:01:22.378Z,19.94
2019-05-02T10:02:27.068Z,19.36
2019-05-02T10:03:32.049Z,19.75
2019-05-02T10:04:36.795Z,19.38
2019-05-02T10:05:43.055Z,16.59
2019-05-02T10:06:48.451Z,15.06
2019-05-02T10:07:57.602Z,15.77
2019-05-02T10:09:02.641Z,16.19
2019-05-02T10:10:07.323Z,16.44
2019-05-02T10:11:16.978Z,15.87
2019-05-02T10:12:19.046Z,15.86
2019-05-02T10:13:24.326Z,16.46
2019-05-02T10:14:29.125Z,17.78
2019-05-02T10:15:33.838Z,16.40
2019-05-02T10:16:38.860Z,15.07
2019-05-02T10:17:46.767Z,14.14
2019-05-02T10:18:52.332Z,14.31
2019-05-02T10:19:57.687Z,15.20
2019-05-02T10:21:07.849Z,14.43
2019-05-02T10:22:12.261Z,12.28
2019-05-02T10:23:19.698Z,11.38
2019-05-02T10:24:24.445Z,11.82
2019-05-02T10:25:32.821Z,13.86
2019-05-02T10:26:36.287Z,12.51
2019-05-02T10:27:43.860Z,11.90
2019-05-02T10:28:50.487Z,13.23
2019-05-02T10:29:57.176Z,14.78
2019-05-02T10:31:02.246Z,16.18
2019-05-02T10:32:07.625Z,16.40
2019-05-02T10:33:13.520Z,17.11
2019-05-02T10:34:19.150Z,17.37
2019-05-02T10:35:28.054Z,17.74
2019-05-02T10:36:33.862Z,14.85
2019-05-02T10:37:39.652Z,13.89
2019-05-02T10:38:48.746Z,12.22
2019-05-02T10:39:52.213Z,11.26
2019-05-02T10:41:01.795Z,11.98
2019-05-02T10:42:04.747Z,12.00
2019-05-02T10:43:11.529Z,11.37
2019-05-02T10:44:16.165Z,11.32
2019-05-02T10:45:22.536Z,12.32
2019-05-02T10:46:44.005Z,14.15
2019-05-02T10:47:48.698Z,13.72
2019-05-02T10:48:59.572Z,12.65
2019-05-02T10:50:11.676Z,12.67
2019-05-02T10:51:35.341Z,13.99
2019-05-02T10:52:42.401Z,14.06
2019-05-02T10:53:52.038Z,15.36
2019-05-02T10:54:53.677Z,14.97
2019-05-02T10:55:58.663Z,13.71
2019-05-02T10:57:03.357Z,13.13
2019-05-02T10:58:08.343Z,12.66
2019-05-02T10:59:13.578Z,12.54
2019-05-02T11:00:22.007Z,13.04
2019-05-02T11:01:26.942Z,12.01
2019-05-02T11:02:49.079Z,11.59
2019-05-02T11:03:54.879Z,10.88
2019-05-02T11:05:02.772Z,10.18
2019-05-02T11:06:07.965Z,11.83
2019-05-02T11:07:17.130Z,13.28
2019-05-02T11:08:22.324Z,11.56
2019-05-02T11:09:26.613Z,11.99
2019-05-02T11:10:32.343Z,12.74
2019-05-02T11:11:37.331Z,11.57
2019-05-02T11:12:47.410Z,11.57
2019-05-02T11:14:13.567Z,11.91
2019-05-02T11:15:49.055Z,11.45
2019-05-02T11:17:08.749Z,11.25
2019-05-02T11:18:12.647Z,12.53
2019-05-02T11:19:23.284Z,12.38
2019-05-02T11:20:28.339Z,12.05
2019-05-02T11:21:33.336Z,13.57
2019-05-02T11:22:38.074Z,13.19
2019-05-02T11:23:43.087Z,12.46
2019-05-02T11:24:48.418Z,12.80
2019-05-02T11:25:53.443Z,13.05
2019-05-02T11:26:58.434Z,14.28
2019-05-02T11:28:07.064Z,13.64
2019-05-02T11:29:09.594Z,14.44
2019-05-02T11:30:16.900Z,16.04
2019-05-02T11:31:21.942Z,16.32
2019-05-02T11:32:26.446Z,15.77
2019-05-02T11:33:32.525Z,15.33
2019-05-02T11:34:37.667Z,15.34
2019-05-02T11:35:48.901Z,15.54
2019-05-02T11:36:49.392Z,17.16
2019-05-02T11:37:54.674Z,17.12
2019-05-02T11:39:09.301Z,17.31
2019-05-02T11:40:07.749Z,16.95
2019-05-02T11:41:13.275Z,16.90
2019-05-02T11:42:23.208Z,17.20
2019-05-02T11:43:24.993Z,17.20
2019-05-02T11:44:30.015Z,16.11
2019-05-02T11:45:35.054Z,16.68
2019-05-02T11:46:43.083Z,17.16
2019-05-02T11:47:46.872Z,17.04
2019-05-02T11:48:56.379Z,16.90
2019-05-02T11:49:58.440Z,17.72
2019-05-02T11:51:07.339Z,18.07
2019-05-02T11:52:11.746Z,18.10
2019-05-02T11:53:28.948Z,18.50
2019-05-02T11:54:24.143Z,18.16
2019-05-02T11:55:29.240Z,18.24
2019-05-02T11:56:33.951Z,18.78
2019-05-02T11:57:38.656Z,18.05
2019-05-02T11:58:48.085Z,18.33
2019-05-02T11:59:52.068Z,17.87
2019-05-02T12:00:57.357Z,17.33
2019-05-02T12:02:17.540Z,17.23
2019-05-02T12:03:28.104Z,17.55
2019-05-02T12:04:33.930Z,16.97
2019-05-02T12:05:42.004Z,17.87
2019-05-02T12:06:49.911Z,17.43
2019-05-02T12:07:55.357Z,17.96
2019-05-02T12:09:01.914Z,18.04
2019-05-02T12:10:06.791Z,18.73
2019-05-02T12:11:16.412Z,17.12
2019-05-02T12:12:18.209Z,17.12
2019-05-02T12:13:25.231Z,18.03
2019-05-02T12:14:32.776Z,17.86
2019-05-02T12:15:37.039Z,18.58
2019-05-02T12:16:43.106Z,18.26
2019-05-02T12:17:48.389Z,18.62
2019-05-02T12:18:57.993Z,18.39
2019-05-02T12:20:02.059Z,19.00
2019-05-02T12:21:06.392Z,18.65
2019-05-02T12:22:12.776Z,18.97
2019-05-02T12:23:17.734Z,19.35
2019-05-02T12:24:22.737Z,18.24
2019-05-02T12:25:28.230Z,18.27
2019-05-02T12:26:33.337Z,18.96
2019-05-02T12:27:38.035Z,19.22
2019-05-02T12:28:42.963Z,19.42
2019-05-02T12:29:50.198Z,19.43
2019-05-02T12:30:54.417Z,19.64
2019-05-02T12:31:59.977Z,19.79
2019-05-02T12:33:04.707Z,20.34
2019-05-02T12:34:09.178Z,20.12
2019-05-02T12:35:14.537Z,19.99
2019-05-02T12:36:19.813Z,19.44
2019-05-02T12:37:24.819Z,18.97
2019-05-02T12:38:29.867Z,19.83
2019-05-02T12:39:34.315Z,19.51
2019-05-02T12:40:39.154Z,19.00
2019-05-02T12:41:44.231Z,18.53
2019-05-02T12:42:49.303Z,18.32
2019-05-02T12:43:54.540Z,18.51
2019-05-02T12:44:59.239Z,19.17
2019-05-02T12:46:03.931Z,19.58
2019-05-02T12:47:09.029Z,19.28
2019-05-02T12:48:13.781Z,18.99
2019-05-02T12:49:27.002Z,18.71
2019-05-02T12:50:26.296Z,18.52
2019-05-02T12:51:33.288Z,18.42
2019-05-02T12:52:38.280Z,18.32
2019-05-02T13:16:18.883Z,19.12
2019-05-02T13:17:23.349Z,19.35
2019-05-02T13:18:34.618Z,19.20
2019-05-02T13:19:40.772Z,19.73
2019-05-02T13:20:43.276Z,19.22
2019-05-02T13:21:59.433Z,19.77
2019-05-02T13:23:34.142Z,18.93
2019-05-02T13:24:54.118Z,18.65
2019-05-02T13:25:57.223Z,18.90
2019-05-02T13:27:04.336Z,18.60
2019-05-02T13:28:08.844Z,19.09
2019-05-02T13:29:13.821Z,19.29
2019-05-02T13:30:32.866Z,18.99
2019-05-02T13:31:45.088Z,18.37
2019-05-02T13:32:56.202Z,18.26
2019-05-02T13:34:06.457Z,18.28
2019-05-02T13:35:37.607Z,17.85
2019-05-02T13:36:45.267Z,18.13
2019-05-02T13:37:56.276Z,18.33
2019-05-02T13:39:01.776Z,18.04
2019-05-02T13:40:32.260Z,17.98
2019-05-02T13:41:36.753Z,18.28
2019-05-02T13:42:42.037Z,18.22
2019-05-02T13:43:48.438Z,18.59
2019-05-02T13:45:02.417Z,18.27
2019-05-02T13:46:22.036Z,17.89
2019-05-02T13:47:26.537Z,18.31
2019-05-02T13:48:32.340Z,19.05
2019-05-02T13:49:50.140Z,19.63
2019-05-02T13:50:43.978Z,19.16
2019-05-02T13:51:48.995Z,20.03
2019-05-02T13:52:57.932Z,20.25
2019-05-02T13:54:02.267Z,18.97
2019-05-02T13:55:08.063Z,18.79
2019-05-02T13:56:46.773Z,19.08
2019-05-02T13:57:52.995Z,18.83
2019-05-02T13:58:58.094Z,18.71
2019-05-02T14:00:02.794Z,18.37
2019-05-02T14:01:07.240Z,18.60
2019-05-02T14:02:31.832Z,18.64
2019-05-02T14:03:36.866Z,19.37
2019-05-02T14:04:41.872Z,18.98
2019-05-02T14:05:51.156Z,19.63
2019-05-02T14:06:54.853Z,19.30
2019-05-02T14:08:35.451Z,20.14
2019-05-02T14:09:44.010Z,19.71
2019-05-02T14:10:52.692Z,21.28
2019-05-02T14:12:22.380Z,21.23
2019-05-02T14:13:27.056Z,20.41
2019-05-02T14:14:32.701Z,20.83
2019-05-02T14:15:39.223Z,21.17
2019-05-02T14:16:43.962Z,21.06
2019-05-02T14:17:49.224Z,21.60
2019-05-02T14:18:54.211Z,20.84
2019-05-02T14:20:08.534Z,20.88
2019-05-02T14:21:05.838Z,20.90
2019-05-02T14:22:12.880Z,21.84
2019-05-02T14:23:17.417Z,21.97
2019-05-02T14:24:23.174Z,21.80
2019-05-02T14:25:28.116Z,21.58
2019-05-02T14:26:33.205Z,22.90
2019-05-02T14:27:38.016Z,23.24
2019-05-02T14:28:43.385Z,22.96
2019-05-02T14:29:48.405Z,23.03
2019-05-02T14:30:53.176Z,23.66
2019-05-02T14:31:58.142Z,23.88
2019-05-02T14:33:06.582Z,24.71
2019-05-02T14:34:29.659Z,25.02
2019-05-02T14:35:36.729Z,24.81
2019-05-02T14:36:42.300Z,25.56
2019-05-02T14:37:53.018Z,25.54
2019-05-02T14:38:58.163Z,25.14
2019-05-02T14:40:09.191Z,25.22
2019-05-02T14:41:17.007Z,26.56
2019-05-02T14:42:25.966Z,25.99
2019-05-02T14:43:48.101Z,26.22
2019-05-02T14:45:07.276Z,27.46
2019-05-02T14:45:59.427Z,27.29
2019-05-02T14:47:04.144Z,26.43
2019-05-02T14:48:18.519Z,25.99
2019-05-02T14:49:16.596Z,26.65
2019-05-02T14:50:26.353Z,26.76
2019-05-02T14:51:29.085Z,27.22
2019-05-02T14:52:37.169Z,26.89
2019-05-02T14:53:42.844Z,26.34
2019-05-02T14:54:48.027Z,27.27
2019-05-02T14:55:57.618Z,27.93